createdAt,value
2023-12-11T00:00:27.836Z,1.20
2023-12-11T00:10:31.220Z,1.20
2023-12-11T00:20:35.990Z,1.80
2023-12-11T00:30:39.369Z,1.90
2023-12-11T00:40:44.200Z,1.80
2023-12-11T00:50:47.611Z,1.80
2023-12-11T01:00:52.297Z,1.50
2023-12-11T01:10:55.860Z,1.40
2023-12-11T01:21:00.954Z,1.10
2023-12-11T01:31:04.595Z,1.20
2023-12-11T01:41:09.856Z,1.00
2023-12-11T01:51:13.357Z,0.60
2023-12-11T02:01:19.412Z,0.70
2023-12-11T02:11:22.890Z,0.60
2023-12-11T02:21:28.015Z,1.00
2023-12-11T02:31:33.045Z,0.70
2023-12-11T02:41:36.337Z,0.70
2023-12-11T02:51:41.110Z,0.70
2023-12-11T03:01:44.639Z,0.90
2023-12-11T03:11:49.398Z,1.40
2023-12-11T03:21:53.083Z,1.50
2023-12-11T03:31:57.862Z,1.60
2023-12-11T03:42:01.173Z,1.60
2023-12-11T03:52:06.595Z,1.30
2023-12-11T04:02:10.168Z,1.30
2023-12-11T04:12:14.981Z,1.30
2023-12-11T04:22:18.332Z,1.40
2023-12-11T04:32:23.068Z,1.30
2023-12-11T04:42:26.413Z,1.20
2023-12-11T04:52:31.138Z,1.10
2023-12-11T05:02:34.497Z,1.00
2023-12-11T05:12:39.242Z,0.90
2023-12-11T05:22:42.650Z,0.90
2023-12-11T05:32:47.473Z,1.10
2023-12-11T05:42:50.943Z,1.10
2023-12-11T05:52:55.640Z,0.80
2023-12-11T06:02:59.025Z,0.70
2023-12-11T06:13:03.924Z,0.70
2023-12-11T06:23:07.387Z,0.90
2023-12-11T06:33:12.182Z,0.60
2023-12-11T06:43:16.658Z,0.40
2023-12-11T06:53:21.530Z,0.70
2023-12-11T07:03:25.018Z,0.20
2023-12-11T07:13:29.880Z,1.60
2023-12-11T07:23:33.327Z,2.60
2023-12-11T07:33:38.749Z,2.90
2023-12-11T07:43:42.186Z,3.30
2023-12-11T07:53:47.143Z,3.40
2023-12-11T08:03:50.716Z,4.10
2023-12-11T08:13:55.868Z,5.50
2023-12-11T08:23:59.197Z,6.10
2023-12-11T08:34:04.428Z,6.90
2023-12-11T08:44:07.799Z,8.30
2023-12-11T08:54:13.723Z,13.30
2023-12-11T09:04:19.255Z,18.60
2023-12-11T09:14:24.103Z,22.50
2023-12-11T09:24:27.558Z,16.40
2023-12-11T09:34:32.999Z,21.40
2023-12-11T09:44:37.203Z,20.10
2023-12-11T09:54:44.965Z,15.80
2023-12-11T10:05:05.042Z,22.80
2023-12-11T10:15:10.775Z,24.90
2023-12-11T10:25:27.090Z,19.30
2023-12-11T10:35:33.785Z,14.90
2023-12-11T10:45:37.658Z,9.30
2023-12-11T10:55:46.558Z,8.60
2023-12-11T11:05:50.720Z,10.70
2023-12-11T11:15:56.771Z,15.40
2023-12-11T11:26:01.059Z,22.30
2023-12-11T11:36:06.799Z,18.80
2023-12-11T11:46:10.587Z,16.30
2023-12-11T11:56:15.444Z,16.40
2023-12-11T12:06:19.277Z,14.00
2023-12-11T12:16:31.034Z,21.70
2023-12-11T12:26:36.670Z,24.10
2023-12-11T12:36:43.655Z,25.10
2023-12-11T12:46:47.733Z,26.40
2023-12-11T12:56:56.927Z,27.00
2023-12-11T13:07:11.927Z,21.00
2023-12-11T13:17:16.622Z,11.90
2023-12-11T13:27:19.872Z,13.50
2023-12-11T13:37:24.491Z,17.50
2023-12-11T13:47:27.962Z,16.10
2023-12-11T13:57:34.959Z,15.70
2023-12-11T14:07:38.238Z,11.20
2023-12-11T14:17:42.913Z,7.80
2023-12-11T14:27:46.169Z,6.00
2023-12-11T14:37:50.797Z,4.20
2023-12-11T14:47:54.120Z,3.70
2023-12-11T14:57:58.860Z,3.60
2023-12-11T15:08:02.199Z,3.40
2023-12-11T15:18:08.846Z,2.70
2023-12-11T15:28:12.196Z,2.70
2023-12-11T15:38:16.997Z,2.70
2023-12-11T15:48:24.248Z,2.80
2023-12-11T15:58:29.533Z,3.40
2023-12-11T16:08:32.819Z,3.50
2023-12-11T16:18:37.429Z,3.50
2023-12-11T16:28:40.779Z,4.70
2023-12-11T16:38:46.300Z,3.80
2023-12-11T16:48:49.877Z,4.10
2023-12-11T16:58:54.883Z,4.20
2023-12-11T17:08:58.320Z,4.30
2023-12-11T17:19:03.110Z,4.20
2023-12-11T17:29:06.436Z,4.00
2023-12-11T17:39:11.082Z,3.40
2023-12-11T17:49:14.405Z,3.80
2023-12-11T17:59:19.105Z,3.90
2023-12-11T18:09:22.372Z,4.10
2023-12-11T18:19:27.091Z,4.20
2023-12-11T18:29:30.426Z,4.30
2023-12-11T18:39:35.081Z,4.40
2023-12-11T18:49:42.222Z,4.30
2023-12-11T18:59:46.946Z,4.30
2023-12-11T19:09:50.213Z,4.30
2023-12-11T19:19:55.005Z,4.20
2023-12-11T19:29:58.697Z,4.30
2023-12-11T19:40:03.823Z,4.40
2023-12-11T19:50:08.014Z,4.20
2023-12-11T20:00:13.881Z,4.20
2023-12-11T20:10:17.452Z,4.30
2023-12-11T20:20:22.066Z,4.30
2023-12-11T20:30:25.393Z,4.00
2023-12-11T20:40:30.233Z,3.90
2023-12-11T20:50:33.641Z,2.90
2023-12-11T21:00:38.271Z,2.90
2023-12-11T21:10:43.192Z,2.90
2023-12-11T21:20:47.798Z,3.30
2023-12-11T21:30:51.891Z,3.70
2023-12-11T21:40:56.694Z,3.70
2023-12-11T21:50:59.922Z,3.70
2023-12-11T22:01:04.798Z,3.80
2023-12-11T22:11:08.184Z,3.70
2023-12-11T22:21:12.757Z,3.60
2023-12-11T22:31:17.076Z,4.00
2023-12-11T22:41:28.308Z,3.50
2023-12-11T22:51:31.517Z,3.30
2023-12-11T23:01:36.287Z,3.40
2023-12-11T23:11:39.570Z,3.50
2023-12-11T23:21:44.172Z,3.40
2023-12-11T23:31:47.359Z,3.30
2023-12-11T23:41:51.910Z,3.20
2023-12-11T23:51:55.189Z,3.30
